createdAt,value
2014-07-15T00:00:25.875Z,64.12
2014-07-15T00:01:30.549Z,64.48
2014-07-15T00:02:35.535Z,64.49
2014-07-15T00:03:40.224Z,64.11
2014-07-15T00:04:44.916Z,63.86
2014-07-15T00:05:49.590Z,64.13
2014-07-15T00:06:54.279Z,64.3
2014-07-15T00:07:58.969Z,64.43
2014-07-15T00:09:03.955Z,64.07
2014-07-15T00:10:08.645Z,64.11
2014-07-15T00:11:13.631Z,64.28
2014-07-15T00:12:18.305Z,64.26
2014-07-15T00:13:23.291Z,63.98
2014-07-15T00:14:27.981Z,64.19
2014-07-15T00:15:32.967Z,64.03
2014-07-15T00:16:37.641Z,63.92
2014-07-15T00:17:42.331Z,64.1
2014-07-15T00:18:47.614Z,63.88
2014-07-15T00:19:52.600Z,63.9
2014-07-15T00:20:57.290Z,63.89
2014-07-15T00:22:02.276Z,63.82
2014-07-15T00:23:06.966Z,64.18
2014-07-15T00:24:11.655Z,63.7
2014-07-15T00:25:16.345Z,63.53
2014-07-15T00:26:21.018Z,63.67
2014-07-15T00:27:25.708Z,64.17
2014-07-15T00:28:30.694Z,63.98
2014-07-15T00:29:35.384Z,63.51
2014-07-15T00:30:40.073Z,63.8
2014-07-15T00:31:45.060Z,64.07
2014-07-15T00:32:49.749Z,64.1
2014-07-15T00:33:54.423Z,64.27
2014-07-15T00:34:59.409Z,64.05
2014-07-15T00:36:04.101Z,64.1
2014-07-15T00:37:08.775Z,63.85
2014-07-15T00:38:13.464Z,63.65
2014-07-15T00:39:18.451Z,63.76
2014-07-15T00:40:23.140Z,63.7
2014-07-15T00:41:27.814Z,63.74
2014-07-15T00:42:32.800Z,63.83
2014-07-15T00:43:37.787Z,64.42
2014-07-15T00:44:42.476Z,63.55
2014-07-15T00:45:47.150Z,63.34
2014-07-15T00:46:51.840Z,63.4
2014-07-15T00:47:56.529Z,63.34
2014-07-15T00:49:01.203Z,63.74
2014-07-15T00:50:05.893Z,63.77
2014-07-15T00:51:10.582Z,63.73
2014-07-15T00:52:15.256Z,63.44
2014-07-15T00:53:19.258Z,64.03
2014-07-15T00:54:23.947Z,63.67
2014-07-15T00:55:28.637Z,63.5
2014-07-15T00:56:33.311Z,63.22
2014-07-15T00:57:38.000Z,63.36
2014-07-15T00:58:42.690Z,63.28
2014-07-15T00:59:47.379Z,63.43
2014-07-15T01:00:52.053Z,63.55
2014-07-15T01:01:56.743Z,63.75
2014-07-15T01:03:01.432Z,63.84
2014-07-15T01:04:06.419Z,63.99
2014-07-15T01:05:11.108Z,63.71
2014-07-15T01:06:15.800Z,63.58
2014-07-15T01:07:20.786Z,63.3
2014-07-15T01:08:25.772Z,63.14
2014-07-15T01:09:30.462Z,63.87
2014-07-15T01:10:35.136Z,64.04
2014-07-15T01:11:40.420Z,64.16
2014-07-15T01:12:45.108Z,63.64
2014-07-15T01:13:49.798Z,63.4
2014-07-15T01:14:54.472Z,63.84
2014-07-15T01:15:59.458Z,64.08
2014-07-15T01:17:04.148Z,63.83
2014-07-15T01:18:08.837Z,64.21
2014-07-15T01:19:13.512Z,63.61
2014-07-15T01:20:18.202Z,63.26
2014-07-15T01:21:22.890Z,63.08
2014-07-15T01:22:27.565Z,63.46
2014-07-15T01:23:32.551Z,63.28
2014-07-15T01:24:37.240Z,63.37
2014-07-15T01:25:41.930Z,63.09
2014-07-15T01:26:46.925Z,64.18
2014-07-15T01:27:51.659Z,63.72
2014-07-15T01:28:56.390Z,63.85
2014-07-15T01:30:01.122Z,63.56
2014-07-15T01:31:05.844Z,63.66
2014-07-15T01:32:10.560Z,63.24
2014-07-15T01:33:15.266Z,63.66
2014-07-15T01:34:19.969Z,64.16
2014-07-15T01:35:24.674Z,64.2
2014-07-15T01:36:29.363Z,64.55
2014-07-15T01:37:34.060Z,64.71
2014-07-15T01:38:38.755Z,64.29
2014-07-15T01:39:43.746Z,64.58
2014-07-15T01:40:48.442Z,64.91
2014-07-15T01:41:53.135Z,64.94
2014-07-15T01:42:57.828Z,64.57
2014-07-15T01:44:02.801Z,64.47
2014-07-15T01:45:07.793Z,64.47
2014-07-15T01:46:12.483Z,64.72
2014-07-15T01:47:17.175Z,64.87
2014-07-15T01:48:21.850Z,65.34
2014-07-15T01:49:26.836Z,65.57
2014-07-15T01:50:31.527Z,65.05
2014-07-15T01:51:36.514Z,65.07
2014-07-15T01:52:41.188Z,65.07
2014-07-15T01:53:46.175Z,65.35
2014-07-15T01:54:50.865Z,64.91
2014-07-15T01:55:55.555Z,65.04
2014-07-15T01:57:00.542Z,64.96
2014-07-15T01:58:05.528Z,65.67
2014-07-15T01:59:10.202Z,66.24
2014-07-15T02:00:15.188Z,66.53
2014-07-15T02:01:19.878Z,66.59
2014-07-15T02:02:24.567Z,66.55
2014-07-15T02:03:29.256Z,66.67
2014-07-15T02:04:33.930Z,66.97
2014-07-15T02:05:38.619Z,66.83
2014-07-15T02:06:43.606Z,66.67
2014-07-15T02:07:47.608Z,66.97
2014-07-15T02:08:51.610Z,66.86
2014-07-15T02:09:56.597Z,67.18
2014-07-15T02:11:01.286Z,67.43
2014-07-15T02:12:05.976Z,66.8
2014-07-15T02:13:10.664Z,66.41
2014-07-15T02:14:14.964Z,66.31
2014-07-15T02:15:18.966Z,66.61
2014-07-15T02:16:23.640Z,66.38
2014-07-15T02:17:28.330Z,66.7
2014-07-15T02:18:33.316Z,67.62
2014-07-15T02:19:37.990Z,67.73
2014-07-15T02:20:42.678Z,67.82
2014-07-15T02:21:47.353Z,67.23
2014-07-15T02:22:52.045Z,66.69
2014-07-15T02:23:56.733Z,67.09
2014-07-15T02:25:01.424Z,66.94
2014-07-15T02:26:06.097Z,66.23
2014-07-15T02:27:10.787Z,66.61
2014-07-15T02:28:15.774Z,66.93
2014-07-15T02:29:20.447Z,66.77
2014-07-15T02:30:25.136Z,67.2
2014-07-15T02:31:29.826Z,67.17
2014-07-15T02:32:34.797Z,66.64
2014-07-15T02:33:39.487Z,66.88
2014-07-15T02:34:44.473Z,66.5
2014-07-15T02:35:49.163Z,66.72
2014-07-15T02:36:54.430Z,66.79
2014-07-15T02:37:59.417Z,66.79
2014-07-15T02:39:04.106Z,68.23
2014-07-15T02:40:09.092Z,68.25
2014-07-15T02:41:13.782Z,68.62
2014-07-15T02:42:18.456Z,68.46
2014-07-15T02:43:23.145Z,68.2
2014-07-15T02:44:28.116Z,67.55
2014-07-15T02:45:32.806Z,67.89
2014-07-15T02:46:37.792Z,67.87
2014-07-15T02:47:43.075Z,68.17
2014-07-15T02:48:47.765Z,68.11
2014-07-15T02:49:52.454Z,68.29
2014-07-15T02:50:57.144Z,68.34
2014-07-15T02:52:02.130Z,68.77
2014-07-15T02:53:06.820Z,68.69
2014-07-15T02:54:11.509Z,68.72
2014-07-15T02:55:16.497Z,68.42
2014-07-15T02:56:21.171Z,67.91
2014-07-15T02:57:26.158Z,67.77
2014-07-15T02:58:31.441Z,67.13
2014-07-15T02:59:36.115Z,67.39
2014-07-15T03:00:40.805Z,67.7
2014-07-15T03:01:45.807Z,67.64
2014-07-15T03:02:51.074Z,68.28
2014-07-15T03:03:55.763Z,67.62
2014-07-15T03:05:00.453Z,67.7
2014-07-15T03:06:05.143Z,66.92
2014-07-15T03:07:10.114Z,66.4
2014-07-15T03:08:14.804Z,66.84
2014-07-15T03:09:19.774Z,67.05
2014-07-15T03:10:24.463Z,67.13
2014-07-15T03:11:29.450Z,67.77
2014-07-15T03:12:34.436Z,67.65
2014-07-15T03:13:39.125Z,68.12
2014-07-15T03:14:43.815Z,68.23
2014-07-15T03:15:48.786Z,68.37
2014-07-15T03:16:53.476Z,67.66
2014-07-15T03:17:58.165Z,67.34
2014-07-15T03:19:02.854Z,67.33
2014-07-15T03:20:07.543Z,67.83
2014-07-15T03:21:12.234Z,67.76
2014-07-15T03:22:16.908Z,67.87
2014-07-15T03:23:21.893Z,68.2
2014-07-15T03:24:27.176Z,68.23
2014-07-15T03:25:31.866Z,67.55
2014-07-15T03:26:36.555Z,67.71
2014-07-15T03:27:41.231Z,67.24
2014-07-15T03:28:45.921Z,68.01
2014-07-15T03:29:49.924Z,67.32
2014-07-15T03:30:54.909Z,68.07
2014-07-15T03:31:59.599Z,68.8
2014-07-15T03:33:04.273Z,67.79
2014-07-15T03:34:08.962Z,66.77
2014-07-15T03:35:13.948Z,67.55
2014-07-15T03:36:18.622Z,67.26
2014-07-15T03:37:23.609Z,67.59
2014-07-15T03:38:28.595Z,67.67
2014-07-15T03:39:33.581Z,68.15
2014-07-15T03:40:38.256Z,68
2014-07-15T03:41:43.243Z,68.1
2014-07-15T03:42:47.932Z,67.41
2014-07-15T03:43:52.605Z,66.93
2014-07-15T03:44:57.295Z,67.61
2014-07-15T03:46:01.968Z,67.18
2014-07-15T03:47:06.658Z,67.49
2014-07-15T03:48:11.644Z,67.18
2014-07-15T03:49:16.335Z,68.15
2014-07-15T03:50:21.023Z,67.9
2014-07-15T03:51:25.697Z,67.55
2014-07-15T03:52:30.387Z,68.15
2014-07-15T03:53:35.373Z,68.16
2014-07-15T03:54:40.063Z,68.19
2014-07-15T03:55:45.050Z,67.68
2014-07-15T03:56:49.739Z,67.35
2014-07-15T03:57:54.429Z,67.39
2014-07-15T03:58:59.415Z,66.72
2014-07-15T04:00:04.090Z,66.39
2014-07-15T04:01:08.780Z,67.4
2014-07-15T04:02:13.455Z,67.8
2014-07-15T04:03:18.440Z,67.68
2014-07-15T04:04:23.130Z,68.24
2014-07-15T04:05:27.804Z,67.99
2014-07-15T04:06:32.790Z,67.28
2014-07-15T04:07:37.480Z,67.73
2014-07-15T04:08:42.466Z,67.5
2014-07-15T04:09:47.139Z,67.79
2014-07-15T04:10:52.126Z,66.98
2014-07-15T04:11:57.112Z,67.11
2014-07-15T04:13:02.099Z,67.49
2014-07-15T04:14:06.773Z,67.04
2014-07-15T04:15:12.057Z,67.47
2014-07-15T04:16:16.745Z,67.27
2014-07-15T04:17:21.419Z,67.79
2014-07-15T04:18:26.109Z,67.08
2014-07-15T04:19:30.798Z,68.28
2014-07-15T04:20:35.472Z,68.08
2014-07-15T04:21:40.459Z,68.31
2014-07-15T04:22:45.148Z,68.01
2014-07-15T04:23:49.823Z,67.03
2014-07-15T04:24:54.511Z,66.85
2014-07-15T04:25:59.202Z,66.36
2014-07-15T04:27:03.890Z,66.28
2014-07-15T04:28:08.564Z,66.75
2014-07-15T04:29:13.257Z,67.03
2014-07-15T04:30:17.961Z,67.14
2014-07-15T04:31:22.635Z,66.9
2014-07-15T04:32:27.324Z,67.15
2014-07-15T04:33:32.608Z,67
2014-07-15T04:34:37.298Z,65.95
2014-07-15T04:35:41.987Z,66.41
2014-07-15T04:36:46.677Z,66.23
2014-07-15T04:37:51.663Z,66.22
2014-07-15T04:38:56.353Z,66.37
2014-07-15T04:40:00.339Z,66.63
2014-07-15T04:41:05.029Z,66.56
2014-07-15T04:42:10.015Z,66.69
2014-07-15T04:43:14.704Z,65.8
2014-07-15T04:44:19.674Z,65.91
2014-07-15T04:45:24.365Z,65.37
2014-07-15T04:46:29.053Z,65.33
2014-07-15T04:47:34.025Z,66.28
2014-07-15T04:48:38.714Z,67.05
2014-07-15T04:49:43.685Z,67.33
2014-07-15T04:50:48.375Z,66.92
2014-07-15T04:51:53.361Z,66.45
2014-07-15T04:52:58.051Z,67.09
2014-07-15T04:54:02.724Z,67.22
2014-07-15T04:55:07.414Z,67.11
2014-07-15T04:56:12.103Z,66.99
2014-07-15T04:57:17.075Z,66.85
2014-07-15T04:58:22.061Z,66.84
2014-07-15T04:59:27.047Z,66.75
2014-07-15T05:00:32.033Z,66.46
2014-07-15T05:01:36.035Z,66.26
2014-07-15T05:02:40.709Z,65.35
2014-07-15T05:03:45.399Z,64.29
2014-07-15T05:04:50.387Z,63.92
2014-07-15T05:05:55.077Z,63.11
2014-07-15T05:06:59.766Z,62.69
2014-07-15T05:08:04.752Z,62.69
2014-07-15T05:09:09.426Z,63.08
2014-07-15T05:10:14.116Z,62.5
2014-07-15T05:11:18.821Z,63.3
2014-07-15T05:12:23.510Z,62.48
2014-07-15T05:13:28.200Z,62.37
2014-07-15T05:14:32.873Z,62.49
2014-07-15T05:15:37.562Z,61.76
2014-07-15T05:16:42.253Z,61.15
2014-07-15T05:17:47.239Z,61.29
2014-07-15T05:18:52.210Z,61.23
2014-07-15T05:19:57.196Z,62.06
2014-07-15T05:21:02.480Z,60.94
2014-07-15T05:22:07.169Z,59.18
2014-07-15T05:23:12.155Z,59.53
2014-07-15T05:24:16.829Z,60.1
2014-07-15T05:25:21.519Z,59.53
2014-07-15T05:26:26.505Z,59.31
2014-07-15T05:27:31.179Z,59.44
2014-07-15T05:28:35.869Z,60.39
2014-07-15T05:29:40.558Z,59.95
2014-07-15T05:30:45.248Z,60.33
2014-07-15T05:31:49.936Z,60.44
2014-07-15T05:32:54.923Z,59.02
2014-07-15T05:33:59.597Z,58.4
2014-07-15T05:35:04.287Z,58.24
2014-07-15T05:36:08.978Z,57.25
2014-07-15T05:37:13.965Z,57.71
2014-07-15T05:38:18.951Z,57.58
2014-07-15T05:39:23.641Z,57.88
2014-07-15T05:40:28.330Z,58.6
2014-07-15T05:41:33.629Z,58.62
2014-07-15T05:42:38.318Z,58.09
2014-07-15T05:43:43.305Z,57.65
2014-07-15T05:44:47.979Z,58.06
2014-07-15T05:45:52.668Z,58.24
2014-07-15T05:46:57.655Z,58.24
2014-07-15T05:48:02.641Z,57.89
2014-07-15T05:49:07.330Z,58.04
2014-07-15T05:50:12.005Z,57.62
2014-07-15T05:51:16.695Z,57.55
2014-07-15T05:52:21.384Z,57.06
2014-07-15T05:53:26.371Z,56.9
2014-07-15T05:54:30.372Z,57.31
2014-07-15T05:55:35.062Z,56.85
2014-07-15T05:56:39.736Z,56.9
2014-07-15T05:57:44.425Z,56.25
2014-07-15T05:58:49.114Z,55.15
2014-07-15T05:59:53.788Z,55.8
2014-07-15T06:00:58.478Z,55.39
2014-07-15T06:02:03.762Z,55.09
2014-07-15T06:03:08.450Z,54.36
2014-07-15T06:04:13.438Z,53.96
2014-07-15T06:05:18.424Z,53.79
2014-07-15T06:06:23.113Z,53.16
2014-07-15T06:07:27.803Z,49.15
2014-07-15T06:08:32.477Z,45.63
2014-07-15T06:09:37.165Z,41.98
2014-07-15T06:10:41.856Z,39.27
2014-07-15T06:11:46.544Z,37.43
2014-07-15T06:12:51.534Z,36.29
2014-07-15T06:13:56.816Z,35.3
2014-07-15T06:15:01.803Z,35.06
2014-07-15T06:16:06.507Z,34.89
2014-07-15T06:17:11.494Z,34.3
2014-07-15T06:18:16.199Z,33.79
2014-07-15T06:19:20.889Z,32.99
2014-07-15T06:20:25.579Z,31.89
2014-07-15T06:21:30.283Z,32.58
2014-07-15T06:22:34.973Z,31.88
2014-07-15T06:23:39.662Z,31.11
2014-07-15T06:24:44.352Z,30.2
2014-07-15T06:25:49.041Z,29.73
2014-07-15T06:26:53.746Z,30.03
2014-07-15T06:27:58.437Z,29.86
2014-07-15T06:29:02.454Z,28.96
2014-07-15T06:30:07.143Z,28.35
2014-07-15T06:31:12.129Z,28.8
2014-07-15T06:32:16.819Z,28.76
2014-07-15T06:33:21.525Z,28.16
2014-07-15T06:34:26.213Z,28.4
2014-07-15T06:35:30.903Z,27.68
2014-07-15T06:36:35.905Z,26.74
2014-07-15T06:37:40.594Z,27.12
2014-07-15T06:38:45.598Z,26.85
2014-07-15T06:39:50.288Z,27.6
2014-07-15T06:40:54.993Z,28.17
2014-07-15T06:41:59.683Z,28.61
2014-07-15T06:43:04.373Z,27.8
2014-07-15T06:44:09.078Z,30.84
2014-07-15T06:45:14.079Z,34.57
2014-07-15T06:46:18.784Z,36.57
2014-07-15T06:47:23.490Z,38.95
2014-07-15T06:48:28.476Z,40.53
2014-07-15T06:49:33.181Z,40.77
2014-07-15T06:50:37.871Z,41.61
2014-07-15T06:51:42.560Z,42.63
2014-07-15T06:52:47.250Z,43.9
2014-07-15T06:53:52.251Z,44.98
2014-07-15T06:54:56.941Z,45.06
2014-07-15T06:56:01.631Z,45.93
2014-07-15T06:57:06.320Z,47.81
2014-07-15T06:58:11.009Z,46.76
2014-07-15T06:59:15.699Z,47.58
2014-07-15T07:00:20.388Z,49.12
2014-07-15T07:01:25.079Z,49.37
2014-07-15T07:02:29.767Z,49.26
2014-07-15T07:03:34.457Z,49.02
2014-07-15T07:04:39.147Z,49.16
2014-07-15T07:05:43.836Z,49.71
2014-07-15T07:06:48.822Z,49.83
2014-07-15T07:07:53.809Z,48.74
2014-07-15T07:08:58.498Z,49.59
2014-07-15T07:10:03.191Z,49.9
2014-07-15T07:11:07.879Z,50.83
2014-07-15T07:12:12.569Z,49.78
2014-07-15T07:13:17.258Z,49.63
2014-07-15T07:14:21.948Z,49.1
2014-07-15T07:15:26.637Z,48.74
2014-07-15T07:16:31.623Z,49.48
2014-07-15T07:17:36.610Z,49.75
2014-07-15T07:18:41.596Z,49.05
2014-07-15T07:19:46.879Z,50.22
2014-07-15T07:20:51.569Z,50.18
2014-07-15T07:21:56.555Z,50.07
2014-07-15T07:23:01.245Z,51.26
2014-07-15T07:24:05.934Z,50.73
2014-07-15T07:25:10.921Z,51.25
2014-07-15T07:26:15.907Z,52
2014-07-15T07:27:20.893Z,52.12
2014-07-15T07:28:25.583Z,52.55
2014-07-15T07:29:30.272Z,51.74
2014-07-15T07:30:35.274Z,50.12
2014-07-15T07:31:40.261Z,50.97
2014-07-15T07:32:44.950Z,49.44
2014-07-15T07:33:49.938Z,49.68
2014-07-15T07:34:55.222Z,50.42
2014-07-15T07:35:59.927Z,49.55
2014-07-15T07:37:04.617Z,49.41
2014-07-15T07:38:09.306Z,49.09
2014-07-15T07:39:14.292Z,47.22
2014-07-15T07:40:18.998Z,46.48
2014-07-15T07:41:23.687Z,46.92
2014-07-15T07:42:28.673Z,46.87
2014-07-15T07:43:33.660Z,47.03
2014-07-15T07:44:37.663Z,47.84
2014-07-15T07:45:42.351Z,47.36
2014-07-15T07:46:47.041Z,47.81
2014-07-15T07:47:51.730Z,47.43
2014-07-15T07:48:56.717Z,49.37
2014-07-15T07:50:01.406Z,48.69
2014-07-15T07:51:06.096Z,47.72
2014-07-15T07:52:10.785Z,47.74
2014-07-15T07:53:15.475Z,47.65
2014-07-15T07:54:20.461Z,46.99
2014-07-15T07:55:25.447Z,47.2
2014-07-15T07:56:30.137Z,47.11
2014-07-15T07:57:34.826Z,48.08
2014-07-15T07:58:40.110Z,47.4
2014-07-15T07:59:45.096Z,47.07
2014-07-15T08:00:49.786Z,47.28
2014-07-15T08:01:54.475Z,47.12
2014-07-15T08:02:59.166Z,47.61
2014-07-15T08:04:03.854Z,48.26
2014-07-15T08:05:08.575Z,49.07
2014-07-15T08:06:13.266Z,48.36
2014-07-15T08:07:17.956Z,48.53
2014-07-15T08:08:22.645Z,47.66
2014-07-15T08:09:26.647Z,48.1
2014-07-15T08:10:31.649Z,47.93
2014-07-15T08:11:36.339Z,47.17
2014-07-15T08:12:41.028Z,47.24
2014-07-15T08:13:45.718Z,47.06
2014-07-15T08:14:50.704Z,47.43
2014-07-15T08:15:54.706Z,46.39
2014-07-15T08:16:59.396Z,46.59
2014-07-15T08:18:04.382Z,47.62
2014-07-15T08:19:09.073Z,47.68
2014-07-15T08:20:13.761Z,46.64
2014-07-15T08:21:18.451Z,46.92
2014-07-15T08:22:23.140Z,47.55
2014-07-15T08:23:27.830Z,48.33
2014-07-15T08:24:32.816Z,47.42
2014-07-15T08:25:37.505Z,46.77
2014-07-15T08:26:42.196Z,47.78
2014-07-15T08:27:46.884Z,47.72
2014-07-15T08:28:51.575Z,48.06
2014-07-15T08:29:56.263Z,47.6
2014-07-15T08:31:00.954Z,47.67
2014-07-15T08:32:05.642Z,47.94
2014-07-15T08:33:10.333Z,48
2014-07-15T08:34:15.318Z,47.48
2014-07-15T08:35:20.009Z,46.58
2014-07-15T08:36:25.291Z,47.24
2014-07-15T08:37:29.981Z,45.92
2014-07-15T08:38:34.967Z,47.69
2014-07-15T08:39:39.953Z,47.26
2014-07-15T08:40:44.658Z,46.59
2014-07-15T08:41:49.646Z,44.52
2014-07-15T08:42:54.336Z,45.6
2014-07-15T08:43:59.026Z,44.83
2014-07-15T08:45:04.013Z,44.08
2014-07-15T08:46:08.702Z,43.36
2014-07-15T08:47:13.408Z,44.8
2014-07-15T08:48:18.097Z,43.86
2014-07-15T08:49:22.786Z,43.04
2014-07-15T08:50:27.476Z,42.94
2014-07-15T08:51:32.462Z,42.53
2014-07-15T08:52:37.152Z,43.81
2014-07-15T08:53:42.138Z,44.03
2014-07-15T08:54:46.827Z,44.63
2014-07-15T08:55:51.517Z,44.48
2014-07-15T08:56:56.207Z,43.46
2014-07-15T08:58:00.897Z,44.74
2014-07-15T08:59:05.586Z,43.32
2014-07-15T09:00:10.572Z,43.37
2014-07-15T09:01:15.559Z,43.06
2014-07-15T09:02:20.545Z,43.18
2014-07-15T09:03:25.235Z,44.39
2014-07-15T09:04:29.924Z,43.17
2014-07-15T09:05:34.911Z,43.94
2014-07-15T09:06:39.600Z,44.73
2014-07-15T09:07:44.290Z,44.05
2014-07-15T09:08:49.276Z,44.44
2014-07-15T09:09:53.965Z,44.08
2014-07-15T09:10:58.952Z,42.96
2014-07-15T09:12:03.939Z,44.04
2014-07-15T09:13:08.628Z,44
2014-07-15T09:14:13.318Z,43.59
2014-07-15T09:15:18.007Z,43.79
2014-07-15T09:16:22.697Z,45.17
2014-07-15T09:17:27.683Z,44.76
2014-07-15T09:18:32.372Z,44.4
2014-07-15T09:19:37.062Z,45.11
2014-07-15T09:20:41.751Z,45.61
2014-07-15T09:21:46.737Z,45.63
2014-07-15T09:22:51.428Z,45.56
2014-07-15T09:23:56.117Z,45.8
2014-07-15T09:25:00.808Z,45.47
2014-07-15T09:26:05.497Z,45.46
2014-07-15T09:27:10.485Z,45.11
2014-07-15T09:28:15.470Z,45.07
2014-07-15T09:29:20.160Z,44.92
2014-07-15T09:30:24.850Z,44.39
2014-07-15T09:31:29.539Z,43.66
2014-07-15T09:32:34.228Z,44.95
2014-07-15T09:33:38.918Z,44.67
2014-07-15T09:34:43.607Z,44.88
2014-07-15T09:35:48.298Z,44.49
2014-07-15T09:36:53.236Z,45
2014-07-15T09:37:57.927Z,44.81
2014-07-15T09:39:02.615Z,45.36
2014-07-15T09:40:07.306Z,44.14
2014-07-15T09:41:11.995Z,44.89
2014-07-15T09:42:16.685Z,44.91
2014-07-15T09:43:21.670Z,44.5
2014-07-15T09:44:26.360Z,45.14
2014-07-15T09:45:31.049Z,43.71
2014-07-15T09:46:35.755Z,43.73
2014-07-15T09:47:40.445Z,44.17
2014-07-15T09:48:45.149Z,43.28
2014-07-15T09:49:49.838Z,43.36
2014-07-15T09:50:54.825Z,43.07
2014-07-15T09:51:59.843Z,44.47
2014-07-15T09:53:04.533Z,43.88
2014-07-15T09:54:09.222Z,41.4
2014-07-15T09:55:14.506Z,41.24
2014-07-15T09:56:19.195Z,41.36
2014-07-15T09:57:24.181Z,41.47
2014-07-15T09:58:28.871Z,41.55
2014-07-15T09:59:33.857Z,41.26
2014-07-15T10:00:38.547Z,41.11
2014-07-15T10:01:43.533Z,40.63
2014-07-15T10:02:48.223Z,40.35
2014-07-15T10:03:52.914Z,42.73
2014-07-15T10:04:57.604Z,38.94
2014-07-15T10:06:02.293Z,39.48
2014-07-15T10:07:07.280Z,39.08
2014-07-15T10:08:11.985Z,40.22
2014-07-15T10:09:16.674Z,40.43
2014-07-15T10:10:21.364Z,39.21
2014-07-15T10:11:26.053Z,38.84
2014-07-15T10:12:30.743Z,38.49
2014-07-15T10:13:35.745Z,39.26
2014-07-15T10:14:40.731Z,41.69
2014-07-15T10:15:45.421Z,40.3
2014-07-15T10:16:50.110Z,41.26
2014-07-15T10:17:54.800Z,41.93
2014-07-15T10:18:59.489Z,42.4
2014-07-15T10:20:04.179Z,42.6
2014-07-15T10:21:08.868Z,42.93
2014-07-15T10:22:13.870Z,42.85
2014-07-15T10:23:18.560Z,42.51
2014-07-15T10:24:23.249Z,43.81
2014-07-15T10:25:27.939Z,43.66
2014-07-15T10:26:32.628Z,43.75
2014-07-15T10:27:37.319Z,43.48
2014-07-15T10:28:42.008Z,43.17
2014-07-15T10:29:46.697Z,43.52
2014-07-15T10:30:51.684Z,44.03
2014-07-15T10:31:56.670Z,43.73
2014-07-15T10:33:01.363Z,44.6
2014-07-15T10:34:06.094Z,44.49
2014-07-15T10:35:10.823Z,44.33
2014-07-15T10:36:15.555Z,44.15
2014-07-15T10:37:20.284Z,43.96
2014-07-15T10:38:25.008Z,44.21
2014-07-15T10:39:30.011Z,43.6
2014-07-15T10:40:35.011Z,44.99
2014-07-15T10:41:40.012Z,43.53
2014-07-15T10:42:44.716Z,42.3
2014-07-15T10:43:49.415Z,41.7
2014-07-15T10:44:54.408Z,42.18
2014-07-15T10:45:59.102Z,42.9
2014-07-15T10:47:04.094Z,43.29
2014-07-15T10:48:08.792Z,42.97
2014-07-15T10:49:13.782Z,42.77
2014-07-15T10:50:18.473Z,42.81
2014-07-15T10:51:23.476Z,42.28
2014-07-15T10:52:28.169Z,40.64
2014-07-15T10:53:32.858Z,40.09
2014-07-15T10:54:37.549Z,40.59
2014-07-15T10:55:42.238Z,39.79
2014-07-15T10:56:46.943Z,40.33
2014-07-15T10:57:51.930Z,39.36
2014-07-15T10:58:56.621Z,40.84
2014-07-15T11:00:01.622Z,40.55
2014-07-15T11:01:06.609Z,40.38
2014-07-15T11:02:11.597Z,40.47
2014-07-15T11:03:16.286Z,40.99
2014-07-15T11:04:20.976Z,41.1
2014-07-15T11:05:25.962Z,41.04
2014-07-15T11:06:30.652Z,41.93
2014-07-15T11:07:35.357Z,43.08
2014-07-15T11:08:40.046Z,43.03
2014-07-15T11:09:44.736Z,43.89
2014-07-15T11:10:49.425Z,42.95
2014-07-15T11:11:54.412Z,42.8
2014-07-15T11:12:59.414Z,44.21
2014-07-15T11:14:04.103Z,43.8
2014-07-15T11:15:08.793Z,44.13
2014-07-15T11:16:13.482Z,44.67
2014-07-15T11:17:18.172Z,44.41
2014-07-15T11:18:22.861Z,45.21
2014-07-15T11:19:27.551Z,45.16
2014-07-15T11:20:31.553Z,45.8
2014-07-15T11:21:36.242Z,46.03
2014-07-15T11:22:40.932Z,44.66
2014-07-15T11:23:45.621Z,44.37
2014-07-15T11:24:50.311Z,45.03
2014-07-15T11:25:55.297Z,43.66
2014-07-15T11:26:59.987Z,45.4
2014-07-15T11:28:04.676Z,43.97
2014-07-15T11:29:09.381Z,43.74
2014-07-15T11:30:14.073Z,43.89
2014-07-15T11:31:18.762Z,43.79
2014-07-15T11:32:23.452Z,43.26
2014-07-15T11:33:28.157Z,43.19
2014-07-15T11:34:33.143Z,43.87
2014-07-15T11:35:38.130Z,42.03
2014-07-15T11:36:42.132Z,41.54
2014-07-15T11:37:46.821Z,41.38
2014-07-15T11:38:51.807Z,41.38
2014-07-15T11:39:56.497Z,40.93
2014-07-15T11:41:01.483Z,41.25
2014-07-15T11:42:06.470Z,42.67
2014-07-15T11:43:11.159Z,42.6
2014-07-15T11:44:16.146Z,42.58
2014-07-15T11:45:20.835Z,42.88
2014-07-15T11:46:25.821Z,42.84
2014-07-15T11:47:30.512Z,42.73
2014-07-15T11:48:35.200Z,41.58
2014-07-15T11:49:39.890Z,41.74
2014-07-15T11:50:43.892Z,42.34
2014-07-15T11:51:48.878Z,42
2014-07-15T11:52:53.568Z,41.65
2014-07-15T11:53:58.554Z,41.32
2014-07-15T11:55:03.541Z,41.53
2014-07-15T11:56:08.230Z,41.2
2014-07-15T11:57:12.935Z,41.14
2014-07-15T11:58:17.625Z,41.21
2014-07-15T11:59:22.629Z,40.71
2014-07-15T12:00:27.318Z,41.42
2014-07-15T12:01:32.305Z,41.58
2014-07-15T12:02:36.994Z,41.77
2014-07-15T12:03:41.684Z,40.87
2014-07-15T12:04:46.686Z,42.98
2014-07-15T12:05:51.375Z,40.61
2014-07-15T12:06:56.065Z,40.48
2014-07-15T12:08:00.754Z,40.96
2014-07-15T12:09:05.444Z,41.45
2014-07-15T12:10:10.133Z,41.56
2014-07-15T12:11:14.823Z,41.18
2014-07-15T12:12:19.512Z,40.61
2014-07-15T12:13:24.202Z,39.38
2014-07-15T12:14:28.891Z,40.09
2014-07-15T12:15:33.581Z,40.61
2014-07-15T12:16:38.286Z,40.19
2014-07-15T12:17:43.272Z,40.13
2014-07-15T12:18:48.258Z,40.53
2014-07-15T12:19:52.948Z,40.37
2014-07-15T12:20:57.637Z,40.37
2014-07-15T12:22:02.343Z,41.78
2014-07-15T12:23:07.033Z,40.08
2014-07-15T12:24:11.722Z,40.22
2014-07-15T12:25:16.412Z,41.23
2014-07-15T12:26:21.101Z,39.81
2014-07-15T12:27:25.790Z,40.19
2014-07-15T12:28:30.777Z,40.09
2014-07-15T12:29:35.467Z,39.98
2014-07-15T12:30:40.155Z,40.64
2014-07-15T12:31:44.845Z,40.43
2014-07-15T12:32:49.534Z,40.59
2014-07-15T12:33:54.227Z,41.34
2014-07-15T12:34:58.932Z,42.14
2014-07-15T12:36:04.214Z,41.75
2014-07-15T12:37:08.513Z,40.2
2014-07-15T12:38:13.501Z,40.19
2014-07-15T12:39:18.486Z,39.67
2014-07-15T12:40:23.175Z,40.04
2014-07-15T12:41:28.162Z,39.51
2014-07-15T12:42:32.851Z,39.15
2014-07-15T12:43:37.556Z,39.88
2014-07-15T12:44:42.246Z,40.76
2014-07-15T12:45:47.232Z,40.15
2014-07-15T12:46:51.922Z,39.74
2014-07-15T12:47:56.908Z,40.24
2014-07-15T12:49:01.599Z,39.52
2014-07-15T12:50:06.288Z,39.84
2014-07-15T12:51:10.977Z,39.67
2014-07-15T12:52:15.666Z,40.68
2014-07-15T12:53:20.357Z,40.3
2014-07-15T12:54:25.045Z,40.96
2014-07-15T12:55:29.736Z,40.73
2014-07-15T12:56:34.440Z,41.86
2014-07-15T12:57:39.129Z,41.51
2014-07-15T12:58:44.131Z,41.3
2014-07-15T12:59:48.821Z,41.06
2014-07-15T13:00:53.807Z,40.63
2014-07-15T13:01:58.497Z,40.75
2014-07-15T13:03:03.484Z,40.18
2014-07-15T13:04:08.470Z,40.81
2014-07-15T13:05:13.159Z,41.05
2014-07-15T13:06:17.162Z,41.55
2014-07-15T13:07:21.883Z,42.16
2014-07-15T13:08:26.572Z,41.73
2014-07-15T13:09:31.561Z,41.52
2014-07-15T13:10:36.563Z,42.13
2014-07-15T13:11:41.549Z,41.37
2014-07-15T13:12:46.237Z,40.49
2014-07-15T13:13:50.944Z,42.78
2014-07-15T13:14:55.632Z,41.44
2014-07-15T13:16:00.322Z,40.76
2014-07-15T13:17:05.309Z,41.32
2014-07-15T13:18:09.998Z,40.93
2014-07-15T13:19:14.688Z,40.5
2014-07-15T13:20:19.377Z,39.84
2014-07-15T13:21:24.364Z,40.48
2014-07-15T13:22:29.053Z,41
2014-07-15T13:23:33.758Z,40.32
2014-07-15T13:24:38.448Z,40.2
2014-07-15T13:25:43.137Z,39.28
2014-07-15T13:26:47.827Z,39.21
2014-07-15T13:27:52.813Z,39.24
2014-07-15T13:28:57.800Z,38.03
2014-07-15T13:30:02.489Z,37.03
2014-07-15T13:31:07.476Z,37.41
2014-07-15T13:32:12.165Z,36.73
2014-07-15T13:33:17.151Z,37.46
2014-07-15T13:34:22.138Z,37.34
2014-07-15T13:35:26.827Z,37.61
2014-07-15T13:36:31.813Z,37.37
2014-07-15T13:37:36.503Z,37.04
2014-07-15T13:38:41.193Z,38.29
2014-07-15T13:39:45.882Z,38.57
2014-07-15T13:40:50.572Z,37.93
2014-07-15T13:41:55.261Z,38.78
2014-07-15T13:42:59.951Z,38.14
2014-07-15T13:44:04.640Z,38.82
2014-07-15T13:45:09.644Z,39.53
2014-07-15T13:46:14.927Z,38.51
2014-07-15T13:47:19.617Z,39.09
2014-07-15T13:48:24.306Z,38.11
2014-07-15T13:49:28.996Z,38.61
2014-07-15T13:50:33.982Z,38.46
2014-07-15T13:51:38.672Z,38.8
2014-07-15T13:52:43.361Z,39.47
2014-07-15T13:53:48.051Z,39.72
2014-07-15T13:54:52.740Z,39.59
2014-07-15T13:55:57.430Z,41.2
2014-07-15T13:57:02.119Z,40.67
2014-07-15T13:58:06.809Z,40.1